createdAt,value
2022-10-13T00:01:11.391Z,100299.97
2022-10-13T00:03:40.450Z,100292.53
2022-10-13T00:06:09.890Z,100304.03
2022-10-13T00:08:38.638Z,100304.03
2022-10-13T00:11:32.486Z,100302.03
2022-10-13T00:14:02.543Z,100316.16
2022-10-13T00:16:32.476Z,100300.53
2022-10-13T00:19:00.095Z,100304.59
2022-10-13T00:21:28.625Z,100303.53
2022-10-13T00:23:56.951Z,100305.22
2022-10-13T00:26:25.704Z,100306.09
2022-10-13T00:28:54.712Z,100302.22
2022-10-13T00:31:25.252Z,100304.84
2022-10-13T00:33:53.146Z,100309.22
2022-10-13T00:36:23.329Z,100299.19
2022-10-13T00:38:51.660Z,100308.72
2022-10-13T00:41:20.241Z,100309.28
2022-10-13T00:43:47.659Z,100310.75
2022-10-13T00:46:16.077Z,100315.31
2022-10-13T00:48:47.342Z,100321.41
2022-10-13T00:51:17.656Z,100324.47
2022-10-13T00:53:48.045Z,100324.13
2022-10-13T00:56:18.403Z,100322.28
2022-10-13T00:58:47.729Z,100333.44
2022-10-13T01:01:15.542Z,100333.13
2022-10-13T01:03:43.132Z,100338.94
2022-10-13T01:06:12.789Z,100326.84
2022-10-13T01:08:40.311Z,100336.31
2022-10-13T01:11:23.157Z,100327.59
2022-10-13T01:14:13.670Z,100333.88
2022-10-13T01:17:22.690Z,100339.00
2022-10-13T01:19:56.458Z,100342.44
2022-10-13T01:22:35.719Z,100335.09
2022-10-13T01:25:31.033Z,100343.25
2022-10-13T01:28:04.355Z,100336.75
2022-10-13T01:30:46.077Z,100331.50
2022-10-13T01:33:19.437Z,100341.34
2022-10-13T01:36:10.072Z,100341.34
2022-10-13T01:39:04.244Z,100344.31
2022-10-13T01:42:46.531Z,100342.78
2022-10-13T01:50:35.440Z,100343.09
2022-10-13T01:53:40.130Z,100348.19
2022-10-13T01:56:35.524Z,100342.44
2022-10-13T01:59:47.440Z,100335.16
2022-10-13T02:07:11.838Z,100352.88
2022-10-13T02:10:00.090Z,100342.84
2022-10-13T02:13:04.396Z,100340.13
2022-10-13T02:16:15.432Z,100352.81
2022-10-13T02:30:41.691Z,100360.22
2022-10-13T02:33:09.923Z,100362.22
2022-10-13T02:35:40.831Z,100358.44
2022-10-13T02:38:08.839Z,100363.66
2022-10-13T02:40:36.537Z,100359.94
2022-10-13T02:43:04.552Z,100360.38
2022-10-13T02:45:32.190Z,100357.91
2022-10-13T02:47:59.689Z,100360.22
2022-10-13T02:50:27.346Z,100357.91
2022-10-13T02:52:57.294Z,100361.03
2022-10-13T02:55:24.974Z,100360.88
2022-10-13T02:57:59.603Z,100361.31
2022-10-13T03:00:27.223Z,100360.53
2022-10-13T03:02:54.682Z,100363.69
2022-10-13T03:05:22.420Z,100371.22
2022-10-13T03:07:50.066Z,100363.03
2022-10-13T03:10:17.681Z,100326.63
2022-10-13T03:12:47.356Z,100375.47
2022-10-13T03:15:14.920Z,100366.50
2022-10-13T03:17:42.682Z,100374.78
2022-10-13T03:20:10.497Z,100376.28
2022-10-13T03:22:37.922Z,100350.44
2022-10-13T03:25:06.027Z,100348.53
2022-10-13T03:27:34.424Z,100367.91
2022-10-13T03:30:02.366Z,100379.22
2022-10-13T03:32:31.870Z,100374.09
2022-10-13T03:34:59.351Z,100376.22
2022-10-13T03:37:30.677Z,100373.38
2022-10-13T03:39:58.174Z,100372.41
2022-10-13T03:42:25.634Z,100382.44
2022-10-13T03:44:56.266Z,100383.25
2022-10-13T03:47:24.298Z,100386.00
2022-10-13T03:49:54.318Z,100378.31
2022-10-13T03:52:22.844Z,100379.72
2022-10-13T03:54:50.439Z,100377.16
2022-10-13T03:57:17.897Z,100380.59
2022-10-13T03:59:45.666Z,100394.56
2022-10-13T04:02:13.230Z,100383.09
2022-10-13T04:04:40.873Z,100396.31
2022-10-13T04:07:08.759Z,100393.41
2022-10-13T04:09:38.797Z,100390.31
2022-10-13T04:12:06.374Z,100398.22
2022-10-13T04:14:33.963Z,100403.34
2022-10-13T04:17:09.001Z,100395.44
2022-10-13T04:19:36.492Z,100401.50
2022-10-13T04:22:06.416Z,100413.66
2022-10-13T04:24:34.808Z,100404.22
2022-10-13T04:27:02.286Z,100402.66
2022-10-13T04:29:29.760Z,100413.06
2022-10-13T04:32:00.299Z,100406.84
2022-10-13T04:34:27.886Z,100415.31
2022-10-13T04:37:35.363Z,100426.25
2022-10-13T04:40:03.867Z,100419.31
2022-10-13T04:42:56.031Z,100426.44
2022-10-13T04:45:23.671Z,100407.72
2022-10-13T04:47:51.071Z,100430.88
2022-10-13T04:50:22.922Z,100432.44
2022-10-13T04:53:08.176Z,100425.13
2022-10-13T04:55:37.312Z,100437.31
2022-10-13T04:58:04.738Z,100429.63
2022-10-13T05:12:37.813Z,100439.44
2022-10-13T05:15:05.723Z,100444.53
2022-10-13T05:17:35.503Z,100450.25
2022-10-13T05:20:10.164Z,100446.22
2022-10-13T05:22:37.728Z,100444.53
2022-10-13T05:25:05.503Z,100441.59
2022-10-13T05:27:32.946Z,100446.53
2022-10-13T05:30:03.758Z,100439.66
2022-10-13T05:32:31.897Z,100447.22
2022-10-13T05:35:14.451Z,100442.53
2022-10-13T05:38:26.300Z,100448.22
2022-10-13T05:41:38.472Z,100445.50
2022-10-13T05:44:48.692Z,100446.78
2022-10-13T05:47:26.877Z,100437.09
2022-10-13T05:50:15.443Z,100444.56
2022-10-13T05:52:43.532Z,100444.72
2022-10-13T05:55:32.338Z,100451.31
2022-10-13T05:58:05.991Z,100448.66
2022-10-13T06:00:33.531Z,100445.78
2022-10-13T06:03:13.002Z,100445.72
2022-10-13T06:05:47.593Z,100444.84
2022-10-13T06:08:16.104Z,100461.97
2022-10-13T06:15:43.807Z,100467.25
2022-10-13T06:23:13.508Z,100461.41
2022-10-13T06:26:25.275Z,100457.78
2022-10-13T06:28:58.406Z,100458.31
2022-10-13T06:31:46.283Z,100455.31
2022-10-13T06:34:13.934Z,100451.44
2022-10-13T06:36:44.932Z,100461.56
2022-10-13T06:39:12.700Z,100467.28
2022-10-13T06:42:23.531Z,100459.53
2022-10-13T06:49:00.479Z,100473.50
2022-10-13T06:51:28.947Z,100468.81
2022-10-13T06:53:57.590Z,100460.78
2022-10-13T06:56:26.679Z,100467.72
2022-10-13T06:58:54.248Z,100473.41
2022-10-13T07:01:22.063Z,100472.88
2022-10-13T07:03:50.632Z,100471.66
2022-10-13T07:06:22.020Z,100469.03
2022-10-13T07:08:51.641Z,100474.81
2022-10-13T07:11:20.369Z,100480.94
2022-10-13T07:13:54.436Z,100491.91
2022-10-13T07:16:22.235Z,100488.53
2022-10-13T07:18:50.033Z,100470.41
2022-10-13T07:21:17.941Z,100480.94
2022-10-13T07:23:45.451Z,100487.22
2022-10-13T07:26:15.184Z,100465.13
2022-10-13T07:28:43.740Z,100475.91
2022-10-13T07:31:14.617Z,100479.94
2022-10-13T07:33:44.587Z,100472.03
2022-10-13T07:36:13.034Z,100462.41
2022-10-13T07:38:40.655Z,100461.16
2022-10-13T07:41:10.243Z,100467.91
2022-10-13T07:43:37.870Z,100471.72
2022-10-13T07:46:06.701Z,100463.59
2022-10-13T07:48:35.765Z,100469.50
2022-10-13T07:51:06.142Z,100469.19
2022-10-13T07:53:35.473Z,100473.81
2022-10-13T07:56:09.555Z,100476.41
2022-10-13T07:58:38.928Z,100468.72
2022-10-13T08:01:07.284Z,100476.03
2022-10-13T08:03:41.842Z,100483.00
2022-10-13T08:06:18.091Z,100487.06
2022-10-13T08:08:45.866Z,100483.06
2022-10-13T08:11:17.834Z,100469.81
2022-10-13T08:13:52.475Z,100476.31
2022-10-13T08:16:23.351Z,100473.06
2022-10-13T08:18:50.943Z,100492.50
2022-10-13T08:24:11.449Z,100492.66
2022-10-13T08:26:39.067Z,100495.19
2022-10-13T08:29:21.221Z,100499.25
2022-10-13T08:34:25.442Z,100506.22
2022-10-13T08:36:56.340Z,100512.97
2022-10-13T08:39:25.306Z,100500.91
2022-10-13T08:41:54.426Z,100507.19
2022-10-13T08:47:23.821Z,100506.06
2022-10-13T08:49:53.515Z,100506.56
2022-10-13T08:52:27.795Z,100498.22
2022-10-13T08:54:56.546Z,100504.84
2022-10-13T08:57:24.771Z,100497.38
2022-10-13T08:59:52.696Z,100500.53
2022-10-13T09:02:27.295Z,100498.41
2022-10-13T09:04:57.484Z,100495.78
2022-10-13T09:07:28.571Z,100502.34
2022-10-13T09:09:56.479Z,100508.97
2022-10-13T09:12:27.102Z,100499.66
2022-10-13T09:15:01.532Z,100504.06
2022-10-13T09:17:32.874Z,100498.16
2022-10-13T09:20:27.762Z,100498.66
2022-10-13T09:23:07.089Z,100494.66
2022-10-13T09:25:43.346Z,100486.06
2022-10-13T09:28:26.792Z,100486.88
2022-10-13T09:31:26.001Z,100484.34
2022-10-13T09:34:12.297Z,100483.50
2022-10-13T09:36:40.163Z,100484.50
2022-10-13T09:39:16.192Z,100494.03
2022-10-13T09:41:45.344Z,100481.13
2022-10-13T09:44:16.696Z,100480.88
2022-10-13T09:46:55.461Z,100485.69
2022-10-13T09:49:36.011Z,100485.00
2022-10-13T09:52:19.646Z,100484.84
2022-10-13T09:54:53.054Z,100489.00
2022-10-13T09:57:45.160Z,100487.84
2022-10-13T10:00:18.346Z,100488.34
2022-10-13T10:03:19.384Z,100488.00
2022-10-13T10:05:55.765Z,100491.84
2022-10-13T10:09:02.155Z,100490.16
2022-10-13T10:11:37.633Z,100483.81
2022-10-13T10:14:20.183Z,100480.13
2022-10-13T10:16:59.455Z,100479.59
2022-10-13T10:19:38.331Z,100473.25
2022-10-13T10:22:37.272Z,100479.03
2022-10-13T10:25:22.863Z,100470.84
2022-10-13T10:27:59.941Z,100465.84
2022-10-13T10:30:29.794Z,100461.28
2022-10-13T10:33:11.730Z,100464.59
2022-10-13T10:35:47.986Z,100465.03
2022-10-13T10:38:44.251Z,100467.78
2022-10-13T10:41:38.903Z,100468.53
2022-10-13T10:44:11.468Z,100462.78
2022-10-13T10:46:49.843Z,100451.19
2022-10-13T10:49:23.832Z,100468.69
2022-10-13T10:51:52.337Z,100455.75
2022-10-13T10:54:46.597Z,100470.88
2022-10-13T10:57:51.420Z,100475.19
2022-10-13T11:00:23.712Z,100475.16
2022-10-13T11:03:09.172Z,100459.81
2022-10-13T11:06:05.892Z,100467.13
2022-10-13T11:08:42.732Z,100455.88
2022-10-13T11:11:37.560Z,100459.16
2022-10-13T11:14:09.153Z,100474.50
2022-10-13T11:16:40.851Z,100466.47
2022-10-13T11:19:29.021Z,100472.50
2022-10-13T11:21:59.384Z,100463.34
2022-10-13T11:24:41.916Z,100463.38
2022-10-13T11:27:14.688Z,100459.69
2022-10-13T11:29:49.204Z,100458.91
2022-10-13T11:32:25.944Z,100460.53
2022-10-13T11:35:02.467Z,100462.53
2022-10-13T11:37:40.711Z,100456.13
2022-10-13T11:40:08.226Z,100445.25
2022-10-13T11:43:00.410Z,100456.00
2022-10-13T11:46:02.219Z,100457.16
2022-10-13T11:48:44.531Z,100464.38
2022-10-13T11:51:26.380Z,100440.88
2022-10-13T11:54:00.340Z,100455.56
2022-10-13T11:56:48.285Z,100453.63
2022-10-13T11:59:31.298Z,100450.56
2022-10-13T12:02:12.296Z,100432.59
2022-10-13T12:04:46.336Z,100436.13
2022-10-13T12:07:16.083Z,100441.50
2022-10-13T12:09:52.267Z,100441.09
2022-10-13T12:12:23.869Z,100439.50
2022-10-13T12:14:58.616Z,100431.34
2022-10-13T12:17:35.443Z,100437.91
2022-10-13T12:20:20.885Z,100432.75
2022-10-13T12:22:49.323Z,100433.78
2022-10-13T12:25:19.119Z,100432.00
2022-10-13T12:27:55.906Z,100429.06
2022-10-13T12:30:25.475Z,100437.88
2022-10-13T12:32:55.831Z,100433.72
2022-10-13T12:35:32.348Z,100439.84
2022-10-13T12:38:19.310Z,100447.00
2022-10-13T12:40:49.254Z,100443.97
2022-10-13T12:43:20.241Z,100446.66
2022-10-13T12:45:49.609Z,100458.88
2022-10-13T12:48:35.451Z,100462.00
2022-10-13T12:51:23.720Z,100456.84
2022-10-13T12:53:51.532Z,100448.31
2022-10-13T12:56:25.948Z,100444.34
2022-10-13T13:24:51.215Z,100465.97
2022-10-13T13:27:21.829Z,100463.25
2022-10-13T13:29:49.732Z,100461.25
2022-10-13T13:32:20.312Z,100467.06
2022-10-13T13:34:49.148Z,100469.78
2022-10-13T13:37:34.173Z,100467.34
2022-10-13T13:40:02.095Z,100462.94
2022-10-13T13:42:32.563Z,100470.53
2022-10-13T13:45:00.227Z,100473.75
2022-10-13T13:47:29.024Z,100471.69
2022-10-13T13:49:57.393Z,100475.47
2022-10-13T13:52:26.051Z,100470.81
2022-10-13T13:54:53.765Z,100480.53
2022-10-13T13:57:21.782Z,100480.31
2022-10-13T13:59:49.589Z,100467.84
2022-10-13T14:02:21.349Z,100484.75
2022-10-13T14:04:49.269Z,100486.91
2022-10-13T14:07:17.810Z,100497.72
2022-10-13T14:09:48.187Z,100489.88
2022-10-13T14:12:15.709Z,100489.38
2022-10-13T14:14:43.123Z,100485.66
2022-10-13T14:17:11.161Z,100503.28
2022-10-13T14:19:38.599Z,100503.94
2022-10-13T14:22:20.180Z,100508.34
2022-10-13T14:24:47.947Z,100510.13
2022-10-13T14:27:15.487Z,100518.25
2022-10-13T14:29:43.045Z,100503.50
2022-10-13T14:32:12.966Z,100516.34
2022-10-13T14:34:40.466Z,100518.53
2022-10-13T14:37:07.934Z,100510.16
2022-10-13T14:39:35.389Z,100513.63
2022-10-13T14:42:02.793Z,100522.72
2022-10-13T14:44:30.287Z,100516.16
2022-10-13T14:46:57.718Z,100524.66
2022-10-13T14:49:25.403Z,100519.19
2022-10-13T14:51:52.876Z,100526.66
2022-10-13T14:54:20.307Z,100520.22
2022-10-13T14:56:47.817Z,100525.13
2022-10-13T14:59:15.314Z,100527.53
2022-10-13T15:01:43.453Z,100535.28
2022-10-13T15:04:11.241Z,100534.34
2022-10-13T15:06:39.515Z,100535.88
2022-10-13T15:11:41.275Z,100541.22
2022-10-13T15:14:09.932Z,100547.88
2022-10-13T15:16:38.047Z,100547.41
2022-10-13T15:19:05.994Z,100535.94
2022-10-13T15:21:33.577Z,100543.69
2022-10-13T15:24:01.691Z,100538.06
2022-10-13T15:26:29.806Z,100540.59
2022-10-13T15:28:57.258Z,100543.69
2022-10-13T15:31:24.895Z,100551.53
2022-10-13T15:33:53.834Z,100540.88
2022-10-13T15:36:23.540Z,100535.13
2022-10-13T15:38:51.725Z,100542.41
2022-10-13T15:41:19.940Z,100540.00
2022-10-13T15:43:48.059Z,100536.94
2022-10-13T15:46:21.672Z,100558.50
2022-10-13T15:48:51.439Z,100548.72
2022-10-13T15:51:21.198Z,100554.66
2022-10-13T15:53:49.137Z,100553.66
2022-10-13T15:56:16.953Z,100547.31
2022-10-13T15:58:45.549Z,100553.16
2022-10-13T16:01:14.422Z,100548.03
2022-10-13T16:03:42.234Z,100547.75
2022-10-13T16:06:12.104Z,100544.50
2022-10-13T16:08:41.017Z,100550.44
2022-10-13T16:11:13.712Z,100553.94
2022-10-13T16:13:41.964Z,100552.81
2022-10-13T16:16:09.402Z,100556.44
2022-10-13T16:18:38.399Z,100559.00
2022-10-13T16:21:28.689Z,100550.44
2022-10-13T16:23:56.634Z,100552.00
2022-10-13T16:26:24.197Z,100554.41
2022-10-13T16:28:55.185Z,100549.38
2022-10-13T16:31:24.298Z,100542.41
2022-10-13T16:33:51.812Z,100540.91
2022-10-13T16:36:20.258Z,100550.84
2022-10-13T16:38:54.386Z,100553.28
2022-10-13T16:41:22.195Z,100564.53
2022-10-13T16:43:50.346Z,100562.91
2022-10-13T16:46:20.414Z,100558.22
2022-10-13T16:48:48.521Z,100557.09
2022-10-13T16:51:19.911Z,100563.69
2022-10-13T16:53:49.728Z,100560.06
2022-10-13T16:56:22.297Z,100552.94
2022-10-13T16:58:55.024Z,100566.34
2022-10-13T17:01:23.027Z,100561.78
2022-10-13T17:03:51.721Z,100562.75
2022-10-13T17:06:24.958Z,100563.28
2022-10-13T17:08:57.888Z,100563.38
2022-10-13T17:11:28.513Z,100568.13
2022-10-13T17:13:58.115Z,100564.75
2022-10-13T17:16:25.906Z,100554.34
2022-10-13T17:18:54.383Z,100555.41
2022-10-13T17:21:22.307Z,100564.31
2022-10-13T17:23:50.194Z,100559.38
2022-10-13T17:26:19.179Z,100569.69
2022-10-13T17:28:47.133Z,100558.72
2022-10-13T17:31:17.474Z,100556.69
2022-10-13T17:33:46.216Z,100569.06
2022-10-13T17:36:28.171Z,100567.56
2022-10-13T17:38:56.682Z,100564.22
2022-10-13T17:41:24.739Z,100556.09
2022-10-13T17:43:52.383Z,100566.41
2022-10-13T17:46:39.171Z,100563.13
2022-10-13T17:49:09.795Z,100557.94
2022-10-13T17:51:37.764Z,100556.09
2022-10-13T17:54:05.294Z,100569.78
2022-10-13T17:56:33.029Z,100571.91
2022-10-13T17:59:02.458Z,100574.94
2022-10-13T18:01:32.787Z,100564.88
2022-10-13T18:04:04.415Z,100580.13
2022-10-13T18:06:38.476Z,100573.44
2022-10-13T18:09:18.619Z,100567.13
2022-10-13T18:11:50.682Z,100570.94
2022-10-13T18:14:20.835Z,100571.38
2022-10-13T18:16:51.069Z,100577.09
2022-10-13T18:19:18.917Z,100568.50
2022-10-13T18:21:46.659Z,100573.16
2022-10-13T18:24:14.275Z,100582.44
2022-10-13T18:26:41.882Z,100579.50
2022-10-13T18:29:11.906Z,100576.88
2022-10-13T18:31:41.486Z,100576.88
2022-10-13T18:34:14.360Z,100573.38
2022-10-13T18:36:47.668Z,100569.06
2022-10-13T18:39:18.376Z,100580.88
2022-10-13T18:41:50.671Z,100568.88
2022-10-13T18:44:19.200Z,100573.19
2022-10-13T18:46:50.497Z,100575.16
2022-10-13T18:49:20.721Z,100588.31
2022-10-13T18:51:50.708Z,100585.13
2022-10-13T18:54:18.433Z,100591.94
2022-10-13T18:56:45.877Z,100585.34
2022-10-13T18:59:13.348Z,100574.91
2022-10-13T19:01:44.411Z,100577.72
2022-10-13T19:04:12.889Z,100584.78
2022-10-13T19:06:41.165Z,100587.47
2022-10-13T19:09:12.281Z,100581.09
2022-10-13T19:11:39.953Z,100594.13
2022-10-13T19:14:10.972Z,100585.56
2022-10-13T19:16:41.509Z,100579.50
2022-10-13T19:19:09.625Z,100572.84
2022-10-13T19:21:38.538Z,100575.25
2022-10-13T19:24:07.268Z,100585.84
2022-10-13T19:26:36.435Z,100585.84
2022-10-13T19:29:08.168Z,100564.72
2022-10-13T19:31:37.734Z,100581.47
2022-10-13T19:34:08.429Z,100571.66
2022-10-13T19:36:41.879Z,100584.19
2022-10-13T19:39:14.977Z,100578.69
2022-10-13T19:41:43.840Z,100583.91
2022-10-13T19:44:11.913Z,100591.88
2022-10-13T19:46:41.238Z,100583.81
2022-10-13T19:49:09.525Z,100589.03
2022-10-13T19:51:41.836Z,100588.13
2022-10-13T19:54:11.223Z,100585.34
2022-10-13T19:56:39.947Z,100588.78
2022-10-13T19:59:08.938Z,100593.25
2022-10-13T20:01:41.149Z,100577.91
2022-10-13T20:04:15.628Z,100583.81
2022-10-13T20:06:44.969Z,100587.25
2022-10-13T20:09:13.086Z,100590.63
2022-10-13T20:11:40.919Z,100579.22
2022-10-13T20:14:08.515Z,100575.09
2022-10-13T20:16:37.917Z,100592.56
2022-10-13T20:19:06.627Z,100588.13
2022-10-13T20:21:34.382Z,100587.25
2022-10-13T20:24:01.875Z,100598.28
2022-10-13T20:26:29.693Z,100589.72
2022-10-13T20:28:58.409Z,100597.50
2022-10-13T20:31:26.465Z,100594.84
2022-10-13T20:33:58.213Z,100591.50
2022-10-13T20:36:35.992Z,100597.50
2022-10-13T20:39:06.819Z,100587.59
2022-10-13T20:41:34.885Z,100590.88
2022-10-13T20:44:03.299Z,100597.84
2022-10-13T20:46:34.118Z,100589.81
2022-10-13T20:49:16.825Z,100598.47
2022-10-13T20:51:44.768Z,100601.81
2022-10-13T20:54:13.695Z,100596.22
2022-10-13T20:56:41.558Z,100581.59
2022-10-13T20:59:12.062Z,100600.84
2022-10-13T21:01:39.576Z,100595.34
2022-10-13T21:04:07.213Z,100607.56
2022-10-13T21:06:35.919Z,100601.34
2022-10-13T21:09:37.290Z,100606.47
2022-10-13T21:12:16.802Z,100606.66
2022-10-13T21:14:47.060Z,100602.78
2022-10-13T21:17:14.560Z,100616.69
2022-10-13T21:19:41.966Z,100613.25
2022-10-13T21:22:09.684Z,100605.34
2022-10-13T21:24:37.388Z,100617.50
2022-10-13T21:27:04.930Z,100625.19
2022-10-13T21:29:32.349Z,100622.53
2022-10-13T21:31:59.853Z,100622.81
2022-10-13T21:34:27.271Z,100617.59
2022-10-13T21:36:54.965Z,100620.25
2022-10-13T21:39:22.416Z,100611.91
2022-10-13T21:41:49.855Z,100623.84
2022-10-13T21:44:17.287Z,100618.56
2022-10-13T21:46:45.278Z,100620.91
2022-10-13T21:49:12.789Z,100613.44
2022-10-13T21:51:40.756Z,100617.22
2022-10-13T21:54:11.178Z,100617.00
2022-10-13T21:56:39.735Z,100619.47
2022-10-13T21:59:08.172Z,100615.66
2022-10-13T22:01:35.681Z,100612.22
2022-10-13T22:04:12.016Z,100613.38
2022-10-13T22:06:39.715Z,100615.66
2022-10-13T22:09:07.655Z,100627.66
2022-10-13T22:11:37.198Z,100622.19
2022-10-13T22:14:11.735Z,100629.16
2022-10-13T22:16:47.770Z,100629.94
2022-10-13T22:19:16.786Z,100631.78
2022-10-13T22:21:46.474Z,100638.59
2022-10-13T22:24:19.823Z,100629.16
2022-10-13T22:26:48.819Z,100621.09
2022-10-13T22:29:19.435Z,100629.66
2022-10-13T22:31:48.519Z,100633.00
2022-10-13T22:34:17.032Z,100628.22
2022-10-13T22:36:45.388Z,100631.06
2022-10-13T22:39:13.864Z,100636.06
2022-10-13T22:41:41.821Z,100639.97
2022-10-13T22:44:09.687Z,100635.97
2022-10-13T22:46:38.146Z,100634.81
2022-10-13T22:49:07.060Z,100641.78
2022-10-13T22:51:36.357Z,100640.53
2022-10-13T22:54:04.835Z,100635.22
2022-10-13T22:56:34.167Z,100645.47
2022-10-13T22:59:05.472Z,100637.56
2022-10-13T23:01:33.245Z,100645.75
2022-10-13T23:04:01.072Z,100640.63
2022-10-13T23:06:31.801Z,100644.09
2022-10-13T23:09:09.291Z,100650.97
2022-10-13T23:11:37.184Z,100644.78
2022-10-13T23:14:06.199Z,100641.31
2022-10-13T23:16:33.992Z,100650.09
2022-10-13T23:19:01.826Z,100643.19
2022-10-13T23:21:30.691Z,100637.97
2022-10-13T23:24:01.117Z,100634.53
2022-10-13T23:26:29.439Z,100627.38
2022-10-13T23:28:58.012Z,100639.16
2022-10-13T23:31:27.695Z,100648.03
2022-10-13T23:33:55.554Z,100642.81
2022-10-13T23:36:25.553Z,100645.66
2022-10-13T23:39:02.127Z,100638.50
2022-10-13T23:41:30.077Z,100642.81
2022-10-13T23:43:57.771Z,100637.22
2022-10-13T23:46:25.824Z,100635.56
2022-10-13T23:48:53.312Z,100646.84
2022-10-13T23:51:23.850Z,100643.00
2022-10-13T23:53:52.218Z,100649.88
2022-10-13T23:56:20.055Z,100660.00
2022-10-13T23:58:48.105Z,100660.00
